Time;durP1;ratioP1;P1;durP2;ratioP2;P2;SDS_P1;SDS_P2;PMS_P1;PMS_P2;Temp;Humidity;BMP_temperature;BMP_pressure;BME280_temperature;BME280_humidity;BME280_pressure;Samples;Min_cycle;Max_cycle;Signal;HPM_P1;HPM_P2
2022/05/11 00:01:12;;;;;;;1.63;0.65;;;;;;;9.91;34.02;98918.44;5078464;28;20423;-72
2022/05/11 00:03:40;;;;;;;9.10;1.05;;;;;;;9.84;33.43;98915.44;5096012;28;20080;-72
2022/05/11 00:06:07;;;;;;;4.47;1.45;;;;;;;9.76;33.65;98909.94;5096029;28;20048;-73
2022/05/11 00:08:35;;;;;;;5.03;1.35;;;;;;;9.72;33.86;98911.81;5077084;28;20048;-72
2022/05/11 00:11:04;;;;;;;9.43;1.10;;;;;;;9.67;33.51;98915.59;5095937;28;20105;-70
2022/05/11 00:13:32;;;;;;;2.38;0.85;;;;;;;9.60;33.61;98908.97;5095457;28;20071;-70
2022/05/11 00:15:59;;;;;;;1.92;0.98;;;;;;;9.57;34.23;98893.00;5095777;28;20554;-72
2022/05/11 00:18:27;;;;;;;2.13;0.90;;;;;;;9.57;33.82;98909.66;5078278;28;20451;-71
2022/05/11 00:20:54;;;;;;;1.45;0.95;;;;;;;9.54;33.52;98900.06;5095316;28;20052;-71
2022/05/11 00:23:21;;;;;;;3.05;0.95;;;;;;;9.52;34.08;98907.91;5095303;28;20553;-71
2022/05/11 00:25:48;;;;;;;2.22;0.80;;;;;;;9.51;33.99;98902.69;5095591;28;20047;-70
2022/05/11 00:28:15;;;;;;;3.22;1.17;;;;;;;9.45;34.30;98906.84;5095151;28;20094;-70
2022/05/11 00:30:43;;;;;;;4.53;1.15;;;;;;;9.41;34.57;98895.59;5095251;28;20085;-71
2022/05/11 00:33:13;;;;;;;2.65;0.90;;;;;;;9.39;34.39;98895.16;5095366;28;20147;-71
2022/05/11 00:35:40;;;;;;;;;;;;;;;9.28;34.65;98896.69;5095449;28;20048;-71
2022/05/11 00:38:08;;;;;;;2.25;0.77;;;;;;;9.25;35.05;98898.22;5095291;28;20294;-65
2022/05/11 00:40:46;;;;;;;2.20;0.98;;;;;;;9.30;34.46;98899.97;5095538;28;20082;-65
2022/05/11 00:43:14;;;;;;;1.63;0.82;;;;;;;9.28;34.39;98897.53;5076951;28;20062;-65
2022/05/11 00:45:50;;;;;;;5.80;1.00;;;;;;;9.29;34.68;98885.25;5095071;28;20474;-64
2022/05/11 00:51:12;;;;;;;1.40;0.90;;;;;;;9.20;34.75;98894.81;5095152;28;20083;-65
2022/05/11 00:53:43;;;;;;;1.98;0.93;;;;;;;9.15;35.22;98895.81;5077096;28;20044;-64
2022/05/11 00:56:11;;;;;;;2.55;0.88;;;;;;;9.12;35.19;98882.63;5094854;28;20052;-65
2022/05/11 00:58:48;;;;;;;3.47;1.20;;;;;;;9.11;35.37;98891.28;5093631;28;20090;-65
2022/05/11 01:01:15;;;;;;;1.83;0.95;;;;;;;9.10;34.98;98896.06;5094789;28;20044;-65
2022/05/11 01:03:53;;;;;;;2.72;1.15;;;;;;;9.07;34.82;98887.59;5094806;28;20106;-65
2022/05/11 01:06:22;;;;;;;2.55;0.82;;;;;;;9.03;35.12;98886.66;5094741;28;20067;-65
2022/05/11 01:08:49;;;;;;;2.33;1.00;;;;;;;9.00;34.84;98890.88;5095402;28;20040;-65
2022/05/11 01:11:17;;;;;;;4.40;1.25;;;;;;;8.94;35.02;98900.56;5094492;28;20426;-65
2022/05/11 01:13:45;;;;;;;7.20;2.60;;;;;;;8.92;35.50;98894.53;5094643;28;20502;-66
2022/05/11 01:16:13;;;;;;;2.35;1.10;;;;;;;8.95;35.33;98899.41;5094467;28;20052;-65
2022/05/11 01:18:41;;;;;;;3.53;1.00;;;;;;;8.93;35.87;98890.63;5094310;28;20090;-66
2022/05/11 01:21:08;;;;;;;5.40;1.00;;;;;;;8.91;35.15;98894.88;5095242;28;20048;-65
2022/05/11 01:23:43;;;;;;;4.75;1.02;;;;;;;8.92;35.39;98888.97;5094220;28;20423;-64
2022/05/11 01:26:10;;;;;;;3.65;1.25;;;;;;;8.90;35.41;98885.75;5094338;28;20056;-65
2022/05/11 01:28:42;;;;;;;2.15;0.95;;;;;;;8.84;35.49;98891.81;5093879;28;20051;-65
2022/05/11 01:31:11;;;;;;;3.05;0.80;;;;;;;8.78;35.50;98896.78;5076593;28;20052;-65
2022/05/11 01:33:42;;;;;;;1.70;0.80;;;;;;;8.76;35.72;98896.28;5092741;28;20059;-65
2022/05/11 01:36:20;;;;;;;1.55;0.80;;;;;;;8.75;35.96;98894.66;5074950;28;20094;-65
2022/05/11 01:38:49;;;;;;;3.03;1.00;;;;;;;8.77;35.51;98881.25;5074351;28;20045;-69
2022/05/11 01:41:26;;;;;;;11.02;1.15;;;;;;;8.81;35.51;98892.50;5073814;28;20052;-66
2022/05/11 01:43:53;;;;;;;2.03;0.80;;;;;;;8.77;35.68;98886.00;5073839;28;20051;-64
2022/05/11 01:46:21;;;;;;;2.17;0.82;;;;;;;8.78;35.51;98887.63;5056468;28;20450;-65
2022/05/11 01:48:48;;;;;;;2.05;1.00;;;;;;;8.75;35.56;98880.81;5093847;28;20427;-65
2022/05/11 01:51:17;;;;;;;3.80;1.02;;;;;;;8.77;35.56;98886.81;5075690;28;20052;-66
2022/05/11 01:53:45;;;;;;;1.52;0.70;;;;;;;8.76;35.66;98887.13;5093618;28;20044;-65
2022/05/11 01:56:20;;;;;;;5.60;1.00;;;;;;;8.81;35.53;98885.00;5094391;28;20097;-65
2022/05/11 01:58:49;;;;;;;1.90;0.90;;;;;;;8.77;35.37;98883.25;5093554;28;20051;-65
2022/05/11 02:01:19;;;;;;;1.92;0.85;;;;;;;8.84;35.32;98889.06;5075868;28;20392;-65
2022/05/11 02:03:46;;;;;;;1.67;0.95;;;;;;;8.91;35.14;98870.72;5093724;28;20052;-65
2022/05/11 02:09:00;;;;;;;1.13;0.80;;;;;;;9.02;35.26;98866.41;5073766;28;20052;-65
2022/05/11 02:11:27;;;;;;;3.03;1.17;;;;;;;9.09;34.98;98876.97;5073423;28;20055;-65
2022/05/11 02:13:56;;;;;;;5.50;1.23;;;;;;;9.07;34.96;98871.75;5073220;28;20122;-65
2022/05/11 02:16:24;;;;;;;3.28;1.30;;;;;;;9.05;35.29;98868.50;5073277;28;20094;-65
2022/05/11 02:18:52;;;;;;;5.35;1.08;;;;;;;9.05;34.95;98867.69;5073459;28;20470;-66
2022/05/11 02:21:18;;;;;;;3.90;0.90;;;;;;;9.09;35.09;98877.75;5073142;28;20492;-65
2022/05/11 02:23:47;;;;;;;1.80;0.82;;;;;;;9.09;35.33;98863.09;5072804;28;20134;-65
2022/05/11 02:26:14;;;;;;;2.60;0.88;;;;;;;9.05;34.72;98870.44;5055684;28;20055;-64
2022/05/11 02:28:41;;;;;;;1.50;0.82;;;;;;;9.07;34.94;98862.63;5072835;28;20041;-65
2022/05/11 02:31:08;;;;;;;2.75;0.88;;;;;;;9.11;34.99;98869.91;5073052;28;20539;-66
2022/05/11 02:33:35;;;;;;;3.25;0.80;;;;;;;9.04;35.21;98860.50;5055556;28;20052;-66
2022/05/11 02:36:02;;;;;;;5.65;1.10;;;;;;;9.05;34.97;98865.72;5072848;28;20415;-65
2022/05/11 02:38:35;;;;;;;1.63;0.98;;;;;;;9.09;35.42;98868.66;5072488;28;20052;-65
2022/05/11 02:41:03;;;;;;;2.78;0.70;;;;;;;9.09;35.21;98863.09;5072848;28;20407;-66
2022/05/11 02:43:30;;;;;;;2.53;0.95;;;;;;;9.14;34.91;98860.91;5072763;28;20411;-65
2022/05/11 02:45:57;;;;;;;3.97;1.38;;;;;;;9.22;34.96;98870.31;5077844;28;20491;-65
2022/05/11 02:48:25;;;;;;;3.88;1.00;;;;;;;9.25;34.56;98869.63;5092888;28;20114;-66
2022/05/11 02:50:54;;;;;;;4.03;1.00;;;;;;;9.32;34.46;98874.66;5092764;28;20089;-65
2022/05/11 02:53:23;;;;;;;1.17;0.70;;;;;;;9.37;34.50;98872.47;5092838;28;20101;-66
2022/05/11 02:55:53;;;;;;;2.80;0.90;;;;;;;9.44;34.59;98871.91;5075352;28;20298;-66
2022/05/11 02:58:22;;;;;;;3.85;0.90;;;;;;;9.41;34.62;98873.38;5092433;28;20047;-69
2022/05/11 03:00:51;;;;;;;2.55;1.08;;;;;;;9.45;34.55;98867.97;5092776;28;20044;-65
2022/05/11 03:03:20;;;;;;;3.55;1.10;;;;;;;9.47;34.58;98865.69;5092542;28;20083;-65
2022/05/11 03:05:48;;;;;;;2.03;1.10;;;;;;;9.43;34.92;98854.44;5075189;28;20056;-65
2022/05/11 03:08:15;;;;;;;1.58;0.90;;;;;;;9.49;34.73;98861.41;5072255;28;20060;-65
2022/05/11 03:10:44;;;;;;;3.83;0.98;;;;;;;9.54;34.55;98865.91;5071989;28;20048;-66
2022/05/11 03:13:11;;;;;;;1.98;0.80;;;;;;;9.51;34.81;98866.59;5072028;28;20044;-67
2022/05/11 03:15:38;;;;;;;6.68;0.88;;;;;;;9.59;34.59;98854.63;5054429;28;20055;-66
2022/05/11 03:18:05;;;;;;;3.80;0.90;;;;;;;9.60;34.15;98870.94;5072199;28;20048;-64
2022/05/11 03:20:32;;;;;;;3.88;1.05;;;;;;;9.64;33.97;98859.94;5065061;28;20048;-65
2022/05/11 03:22:58;;;;;;;6.28;1.10;;;;;;;9.74;34.04;98859.50;5075878;28;20400;-68
2022/05/11 03:25:26;;;;;;;2.15;0.95;;;;;;;9.77;34.35;98858.81;5076692;28;20054;-64
2022/05/11 03:27:53;;;;;;;1.90;0.90;;;;;;;9.83;34.46;98861.00;5076344;28;20056;-66
2022/05/11 03:30:21;;;;;;;3.25;1.25;;;;;;;9.86;34.10;98856.75;5076230;28;20385;-65
2022/05/11 03:35:33;;;;;;;7.20;0.98;;;;;;;9.80;34.03;98863.69;5058110;28;20139;-64
2022/05/11 03:38:00;;;;;;;2.47;1.02;;;;;;;9.83;34.08;98855.47;5076189;28;20052;-65
2022/05/11 03:40:27;;;;;;;5.90;1.20;;;;;;;9.93;33.96;98857.81;5076478;28;20044;-71
2022/05/11 03:42:54;;;;;;;2.72;1.02;;;;;;;10.00;33.65;98857.22;5075664;28;20094;-72
2022/05/11 03:45:25;;;;;;;2.00;0.85;;;;;;;10.00;34.11;98857.22;5075967;28;20147;-71
2022/05/11 03:47:52;;;;;;;0.77;0.65;;;;;;;9.98;33.71;98856.78;5096444;28;20059;-72
2022/05/11 03:50:22;;;;;;;2.45;0.98;;;;;;;9.95;34.28;98863.03;5096527;28;20048;-72
2022/05/11 03:52:51;;;;;;;1.85;0.85;;;;;;;9.90;34.60;98857.69;5078773;28;20184;-72
2022/05/11 03:55:19;;;;;;;2.08;0.80;;;;;;;9.92;34.21;98864.50;5096453;28;20477;-72
2022/05/11 03:57:46;;;;;;;2.15;1.02;;;;;;;9.89;33.83;98859.63;5095913;28;20056;-72
2022/05/11 04:00:21;;;;;;;2.40;0.80;;;;;;;9.88;34.21;98868.31;5096484;28;20059;-71
2022/05/11 04:02:52;;;;;;;3.50;0.88;;;;;;;9.82;34.32;98864.13;5096020;28;20141;-72
2022/05/11 04:05:21;;;;;;;1.60;0.80;;;;;;;9.75;34.24;98861.13;5082368;28;20130;-71
2022/05/11 04:07:48;;;;;;;2.10;0.82;;;;;;;9.65;34.50;98862.38;5075411;28;20136;-72
2022/05/11 04:10:17;;;;;;;2.95;1.02;;;;;;;9.74;34.96;98862.28;5074753;28;20052;-71
2022/05/11 04:12:44;;;;;;;1.45;0.80;;;;;;;9.76;33.96;98863.56;5074565;28;20522;-71
2022/05/11 04:15:12;;;;;;;1.77;0.88;;;;;;;9.86;33.90;98865.09;5075211;28;20052;-71
2022/05/11 04:17:39;;;;;;;1.45;0.77;;;;;;;9.92;33.89;98864.50;5075087;28;20089;-71
2022/05/11 04:20:08;;;;;;;3.88;1.00;;;;;;;9.92;34.07;98866.50;5074979;28;20052;-71
2022/05/11 04:22:35;;;;;;;6.00;1.15;;;;;;;9.95;34.67;98860.25;5073973;28;20057;-72
2022/05/11 04:25:03;;;;;;;2.45;0.90;;;;;;;10.10;34.39;98863.16;5081977;28;20047;-72
2022/05/11 04:27:30;;;;;;;1.35;0.85;;;;;;;10.17;34.18;98866.19;5095326;28;20135;-71
2022/05/11 04:29:57;;;;;;;2.85;1.15;;;;;;;10.24;33.45;98857.28;5095428;28;20048;-72
2022/05/11 04:32:24;;;;;;;2.30;1.25;;;;;;;10.24;33.68;98851.72;5095457;28;20056;-72
2022/05/11 04:34:51;;;;;;;3.33;1.10;;;;;;;10.19;33.69;98855.53;5095666;28;20056;-72
2022/05/11 04:37:18;;;;;;;2.67;1.05;;;;;;;10.23;33.21;98856.47;5094941;28;20043;-71
2022/05/11 04:39:45;;;;;;;5.20;1.08;;;;;;;10.28;33.17;98855.44;5095212;28;20044;-72
2022/05/11 04:42:12;;;;;;;1.55;0.73;;;;;;;10.27;33.44;98853.81;5095131;28;20378;-71
2022/05/11 04:44:39;;;;;;;4.03;0.80;;;;;;;10.43;33.29;98851.97;5095069;28;20793;-72
2022/05/11 04:47:12;;;;;;;2.03;1.00;;;;;;;10.42;33.24;98848.34;5095281;28;20051;-72
2022/05/11 04:49:40;;;;;;;10.75;1.05;;;;;;;10.39;32.59;98848.25;5095011;28;20058;-72
2022/05/11 04:52:10;;;;;;;8.70;1.10;;;;;;;10.48;32.89;98846.16;5095234;28;20044;-72
2022/05/11 04:54:43;;;;;;;2.42;1.20;;;;;;;10.54;33.28;98839.22;5095096;28;20062;-72
2022/05/11 04:57:11;;;;;;;3.28;1.10;;;;;;;10.66;33.16;98830.84;5076685;28;20094;-71
2022/05/11 04:59:41;;;;;;;15.63;1.20;;;;;;;10.79;32.95;98826.88;5094531;28;20044;-72
2022/05/11 05:02:17;;;;;;;7.28;0.77;;;;;;;10.87;32.70;98820.38;5094467;28;20074;-72
2022/05/11 05:04:45;;;;;;;1.77;0.90;;;;;;;10.86;32.61;98829.84;5076558;28;20056;-72
2022/05/11 05:07:12;;;;;;;2.25;1.10;;;;;;;11.04;32.09;98831.19;5040197;28;20056;-72
2022/05/11 05:09:41;;;;;;;3.92;0.80;;;;;;;11.20;31.81;98831.25;5057366;28;20052;-72
2022/05/11 05:12:10;;;;;;;6.03;1.55;;;;;;;11.37;32.09;98828.97;5074295;28;20083;-72
2022/05/11 05:14:38;;;;;;;1.83;0.80;;;;;;;11.42;31.33;98825.13;5074830;28;20052;-72
2022/05/11 05:17:09;;;;;;;3.47;1.00;;;;;;;11.49;31.04;98828.91;5073914;28;20048;-71
2022/05/11 05:19:38;;;;;;;2.70;1.02;;;;;;;11.65;30.99;98838.16;5074443;28;20098;-72
2022/05/11 05:22:06;;;;;;;2.83;0.90;;;;;;;11.70;31.01;98837.09;5074060;28;20059;-70
2022/05/11 05:24:33;;;;;;;2.63;0.90;;;;;;;11.85;30.75;98839.09;5074534;28;20048;-65
2022/05/11 05:27:00;;;;;;;3.40;1.05;;;;;;;11.97;30.75;98828.69;5074095;28;20057;-65
2022/05/11 05:32:14;;;;;;;3.30;0.85;;;;;;;12.20;30.32;98832.44;5074042;28;20052;-65
2022/05/11 05:34:44;;;;;;;6.80;1.00;;;;;;;12.45;29.86;98827.47;5073897;28;20056;-65
2022/05/11 05:37:12;;;;;;;3.30;1.20;;;;;;;12.74;29.55;98822.19;5091125;28;20414;-66
2022/05/11 05:39:39;;;;;;;1.67;0.90;;;;;;;13.03;29.38;98815.28;5094194;28;20071;-65
2022/05/11 05:42:06;;;;;;;4.07;1.17;;;;;;;13.38;29.25;98812.44;5075492;28;20051;-65
2022/05/11 05:44:33;;;;;;;2.05;1.00;;;;;;;13.64;28.48;98815.31;5093384;28;20414;-65
2022/05/11 05:47:07;;;;;;;2.90;0.90;;;;;;;13.70;28.10;98809.06;5093916;28;20052;-65
2022/05/11 05:49:35;;;;;;;7.15;1.20;;;;;;;13.94;27.89;98810.69;5093560;28;20047;-65
2022/05/11 05:52:03;;;;;;;3.10;0.93;;;;;;;14.26;27.57;98809.28;5093830;28;20052;-66
2022/05/11 05:54:34;;;;;;;3.00;1.13;;;;;;;14.59;26.80;98806.59;5076658;28;20094;-66
2022/05/11 05:57:01;;;;;;;2.10;1.15;;;;;;;15.04;26.17;98800.06;5075970;28;20505;-65
2022/05/11 05:59:28;;;;;;;10.10;1.75;;;;;;;15.08;26.28;98806.50;5093424;28;20040;-65
2022/05/11 06:01:55;;;;;;;3.33;0.95;;;;;;;15.03;26.03;98802.06;5094134;28;20098;-64
2022/05/11 06:04:23;;;;;;;7.78;1.23;;;;;;;15.46;25.25;98801.44;5088068;28;20557;-73
2022/05/11 06:06:50;;;;;;;2.63;1.00;;;;;;;15.19;24.96;98802.66;5073314;28;20056;-74
2022/05/11 06:09:17;;;;;;;3.72;1.20;;;;;;;15.39;25.26;98792.94;5073697;28;20044;-71
2022/05/11 06:11:44;;;;;;;1.92;0.75;;;;;;;15.68;24.78;98796.88;5073183;28;20499;-72
2022/05/11 06:14:11;;;;;;;7.07;1.15;;;;;;;15.58;24.91;98801.19;5073410;28;20499;-72
2022/05/11 06:16:38;;;;;;;5.18;1.10;;;;;;;15.57;25.18;98793.94;5073124;28;20052;-71
2022/05/11 06:19:05;;;;;;;1.60;0.80;;;;;;;15.62;24.43;98799.22;5073063;28;20052;-71
2022/05/11 06:21:34;;;;;;;5.10;1.00;;;;;;;15.99;24.24;98802.78;5072718;28;20055;-72
2022/05/11 06:24:01;;;;;;;4.32;1.10;;;;;;;15.96;23.55;98791.56;5070305;28;20060;-72
2022/05/11 06:26:28;;;;;;;2.65;1.10;;;;;;;15.77;24.06;98789.75;5091534;28;20079;-72
2022/05/11 06:29:15;;;;;;;2.35;1.10;;;;;;;16.01;24.20;98792.00;5075331;28;20548;-73
2022/05/11 06:31:42;;;;;;;9.57;1.20;;;;;;;16.11;23.49;98791.28;5075041;28;20055;-71
2022/05/11 06:34:09;;;;;;;4.22;1.00;;;;;;;15.87;24.04;98783.44;5093061;28;20094;-74
2022/05/11 06:36:36;;;;;;;4.25;1.02;;;;;;;15.52;24.43;98783.09;5093144;28;20048;-73
2022/05/11 06:39:03;;;;;;;4.68;0.98;;;;;;;15.30;24.36;98778.38;5092768;28;20109;-75
2022/05/11 06:41:30;;;;;;;6.53;1.10;;;;;;;15.53;23.84;98784.69;5093283;28;20069;-75
2022/05/11 06:43:56;;;;;;;3.60;1.20;;;;;;;15.85;23.56;98777.44;5093386;28;20410;-73
2022/05/11 06:46:23;;;;;;;1.88;1.00;;;;;;;15.90;23.17;98776.28;5092601;28;20099;-75
2022/05/11 06:48:51;;;;;;;2.28;1.00;;;;;;;16.62;22.54;98774.47;5093441;28;20051;-72
2022/05/11 06:51:19;;;;;;;3.63;1.15;;;;;;;18.10;21.05;98764.59;5092713;28;20402;-72
2022/05/11 06:59:26;;;;;;;5.55;1.30;;;;;;;19.66;18.68;98736.44;5092777;28;20173;-72
2022/05/11 07:01:57;;;;;;;2.67;1.10;;;;;;;20.01;18.27;98757.22;5092974;28;20052;-71
2022/05/11 07:04:25;;;;;;;12.23;1.27;;;;;;;20.59;17.57;98746.66;5091523;28;20238;-76
2022/05/11 07:06:56;;;;;;;2.28;0.88;;;;;;;21.00;16.95;98757.97;5076821;28;20056;-72
2022/05/11 07:09:25;;;;;;;4.78;1.20;;;;;;;22.34;16.24;98748.44;5092785;28;20047;-71
2022/05/11 07:14:38;;;;;;;4.55;1.10;;;;;;;24.83;14.25;98743.91;5092475;28;20507;-71
2022/05/11 07:17:06;;;;;;;3.08;1.13;;;;;;;25.45;13.56;98748.28;5092602;28;20105;-71
2022/05/11 07:19:34;;;;;;;2.95;0.90;;;;;;;25.96;13.00;98747.09;5092231;28;20051;-71
2022/05/11 07:22:02;;;;;;;2.65;1.10;;;;;;;25.58;13.24;98742.63;5092295;28;20511;-72
2022/05/11 07:24:29;;;;;;;10.43;1.58;;;;;;;25.63;13.27;98745.69;5092539;28;20093;-72
2022/05/11 07:26:55;;;;;;;3.33;1.00;;;;;;;25.61;13.69;98742.50;5092097;28;20094;-72
2022/05/11 07:29:22;;;;;;;2.85;1.10;;;;;;;25.72;13.21;98740.13;5092458;28;20044;-71
2022/05/11 07:31:50;;;;;;;5.22;1.35;;;;;;;25.73;12.88;98738.09;5092245;28;20051;-75
2022/05/11 07:34:17;;;;;;;3.72;1.10;;;;;;;26.12;12.62;98729.13;5092560;28;20488;-71
2022/05/11 07:36:44;;;;;;;6.85;1.13;;;;;;;26.12;12.66;98737.69;5106085;28;20043;-72
2022/05/11 07:39:11;;;;;;;5.45;1.10;;;;;;;26.07;12.41;98724.81;5112726;28;20047;-76
2022/05/11 07:41:38;;;;;;;3.58;1.15;;;;;;;25.69;12.28;98726.78;5113442;28;20044;-71
2022/05/11 07:44:05;;;;;;;14.32;1.20;;;;;;;25.31;12.70;98728.72;5112651;28;20054;-72
2022/05/11 07:46:35;;;;;;;5.13;1.05;;;;;;;24.70;12.98;98720.28;5112226;28;20055;-72
2022/05/11 07:49:04;;;;;;;7.75;1.25;;;;;;;24.70;13.39;98734.50;5112587;28;20051;-71
2022/05/11 07:51:32;;;;;;;3.03;1.13;;;;;;;26.31;12.48;98728.91;5112115;28;20047;-72
2022/05/11 07:53:59;;;;;;;4.07;1.13;;;;;;;27.43;11.65;98720.47;5113126;28;20056;-71
2022/05/11 08:01:58;;;;;;;4.53;1.05;;;;;;;27.79;10.82;98706.41;5112411;28;20055;-72
2022/05/11 08:04:25;;;;;;;6.60;1.20;;;;;;;27.28;11.49;98710.84;5091778;28;20090;-71
2022/05/11 08:06:52;;;;;;;3.42;1.02;;;;;;;28.07;11.17;98702.47;5072981;28;20098;-71
2022/05/11 08:09:19;;;;;;;4.90;1.30;;;;;;;28.95;10.15;98710.97;5096097;28;20051;-71
2022/05/11 08:11:47;;;;;;;4.63;1.08;;;;;;;29.56;10.05;98704.94;5095607;28;20460;-71
2022/05/11 08:14:15;;;;;;;3.85;1.40;;;;;;;29.39;10.27;98709.41;5095929;28;20101;-71
2022/05/11 08:16:42;;;;;;;3.13;1.13;;;;;;;28.95;10.76;98699.50;5095713;28;20407;-71
2022/05/11 08:19:10;;;;;;;3.65;1.23;;;;;;;29.08;10.31;98700.19;5095410;28;20101;-71
2022/05/11 08:21:37;;;;;;;7.75;1.13;;;;;;;29.10;10.89;98694.00;5095591;28;20051;-70
2022/05/11 08:24:05;;;;;;;65.53;31.00;;;;;;;28.18;10.99;98697.09;5095203;28;20100;-66
2022/05/11 08:26:36;;;;;;;7.95;1.92;;;;;;;27.02;11.84;98695.09;5095847;28;20051;-66
2022/05/11 08:29:03;;;;;;;3.40;1.20;;;;;;;25.57;12.76;98695.41;5095221;28;20044;-66
2022/05/11 08:34:29;;;;;;;9.50;1.83;;;;;;;22.37;14.76;98700.19;5050922;28;20082;-67
2022/05/11 08:36:55;;;;;;;3.45;1.30;;;;;;;21.67;15.48;98693.59;5095656;28;20074;-66
2022/05/11 08:39:22;;;;;;;2.53;1.05;;;;;;;21.26;15.78;98695.03;5087091;28;20045;-64
2022/05/11 08:41:52;;;;;;;4.25;1.10;;;;;;;21.09;16.13;98690.38;5074697;28;20052;-65
2022/05/11 08:44:32;;;;;;;1.90;1.10;;;;;;;20.94;16.35;98683.25;5075059;28;20462;-65
2022/05/11 08:47:07;;;;;;;8.90;2.33;;;;;;;20.61;16.79;98689.72;5074965;28;20053;-65
2022/05/11 08:49:37;;;;;;;5.05;1.35;;;;;;;20.35;17.02;98691.19;5075243;28;20060;-65
2022/05/11 08:52:05;;;;;;;;;;;;;;;20.55;16.91;98683.72;5093567;28;20089;-65
2022/05/11 08:54:54;;;;;;;4.53;1.65;;;;;;;20.82;16.70;98689.47;5078509;28;19932;-66
2022/05/11 08:57:25;;;;;;;7.75;1.27;;;;;;;20.95;16.60;98680.06;5101072;28;20040;-65
2022/05/11 09:00:16;;;;;;;1.83;0.93;;;;;;;20.53;16.70;98686.16;5089614;28;20056;-64
2022/05/11 09:02:47;;;;;;;3.47;1.30;;;;;;;20.51;17.22;98687.78;5093952;28;20063;-65
2022/05/11 09:05:20;;;;;;;1.88;1.05;;;;;;;20.53;17.01;98685.34;5094711;28;20055;-65
2022/05/11 09:07:49;;;;;;;4.85;1.33;;;;;;;20.32;17.11;98682.72;5095315;28;20051;-65
2022/05/11 09:10:24;;;;;;;4.78;1.30;;;;;;;20.07;17.69;98684.97;5093167;28;20052;-66
2022/05/11 09:12:57;;;;;;;7.13;1.73;;;;;;;20.02;17.76;98682.56;5094597;28;20185;-65
2022/05/11 09:15:53;;;;;;;2.03;1.00;;;;;;;20.16;17.78;98676.84;5115491;28;20521;-65
2022/05/11 09:18:22;;;;;;;5.18;1.65;;;;;;;20.46;17.46;98679.78;5114359;28;20058;-65
2022/05/11 09:20:52;;;;;;;2.45;1.27;;;;;;;20.49;17.58;98679.72;5114355;28;20402;-67
2022/05/11 09:23:42;;;;;;;5.63;2.45;;;;;;;20.36;17.90;98675.00;5074631;28;20087;-63
2022/05/11 09:26:16;;;;;;;10.70;1.92;;;;;;;20.09;17.94;98686.13;5093689;28;20051;-65
2022/05/11 09:28:45;;;;;;;2.53;1.10;;;;;;;19.99;18.06;98693.47;5090836;28;20583;-66
2022/05/11 09:31:16;;;;;;;;;;;;;;;20.02;18.23;98686.19;5093714;28;20052;-65
2022/05/11 09:34:05;;;;;;;3.22;1.35;;;;;;;19.78;18.27;98690.03;5092208;28;19930;-65
2022/05/11 09:37:11;;;;;;;5.05;1.25;;;;;;;19.56;18.65;98689.34;5089492;28;20387;-66
2022/05/11 09:39:52;;;;;;;3.30;1.42;;;;;;;19.20;18.78;98681.47;5093307;28;20052;-66
2022/05/11 09:42:29;;;;;;;4.45;1.10;;;;;;;18.93;19.02;98677.56;5094430;28;20055;-66
2022/05/11 09:44:56;;;;;;;9.18;3.03;;;;;;;18.68;19.11;98674.84;5092717;28;20040;-66
2022/05/11 09:47:33;;;;;;;11.77;1.73;;;;;;;18.39;19.45;98670.50;5092818;28;20051;-64
2022/05/11 09:50:23;;;;;;;6.53;1.33;;;;;;;18.43;19.64;98682.56;5089657;28;20048;-66
2022/05/11 09:52:51;;;;;;;2.80;1.10;;;;;;;18.29;19.76;98687.38;5087827;28;20132;-65
2022/05/11 09:55:26;;;;;;;2.55;1.13;;;;;;;18.06;20.02;98682.19;5079079;28;20055;-64
2022/05/11 09:58:06;;;;;;;6.90;1.10;;;;;;;18.19;19.88;98689.81;5091789;28;20410;-64
2022/05/11 10:00:40;;;;;;;5.30;1.23;;;;;;;18.17;20.24;98688.59;5092844;28;20048;-63
2022/05/11 10:03:20;;;;;;;4.57;1.40;;;;;;;18.33;20.52;98689.00;5090939;28;20552;-63
2022/05/11 10:05:50;;;;;;;3.25;1.67;;;;;;;18.16;20.08;98687.00;5090763;28;20056;-66
2022/05/11 10:08:36;;;;;;;7.95;3.63;;;;;;;18.02;20.19;98689.81;5108377;28;20043;-64
2022/05/11 10:11:21;;;;;;;13.40;1.60;;;;;;;17.97;20.64;98693.03;5096477;28;20040;-64
2022/05/11 10:22:28;;;;;;;6.95;1.05;;;;;;;17.69;20.86;98688.19;5093108;28;20066;-64
2022/05/11 10:25:07;;;;;;;2.92;1.00;;;;;;;17.71;20.63;98691.41;5093194;28;20058;-63
2022/05/11 10:27:56;;;;;;;2.05;0.90;;;;;;;17.48;21.21;98685.34;5075206;28;20048;-64
2022/05/11 10:30:24;;;;;;;3.80;1.15;;;;;;;17.46;21.06;98690.56;5073763;28;20045;-64
2022/05/11 10:33:17;;;;;;;4.35;1.33;;;;;;;17.65;20.91;98692.22;5072863;28;20049;-65
2022/05/11 10:36:09;;;;;;;3.25;1.05;;;;;;;17.77;20.86;98680.56;5073218;28;20052;-65
2022/05/11 10:39:07;;;;;;;12.57;1.80;;;;;;;17.67;20.86;98684.16;5074126;28;20079;-67
2022/05/11 10:42:02;;;;;;;4.75;1.55;;;;;;;17.68;20.98;98669.69;5061946;28;20412;-63
2022/05/11 10:44:32;;;;;;;3.60;1.35;;;;;;;17.89;20.82;98674.53;5093094;28;20051;-62
2022/05/11 10:46:59;;;;;;;3.65;1.20;;;;;;;17.97;21.16;98679.75;5093063;28;20051;-64
2022/05/11 10:49:45;;;;;;;2.95;1.23;;;;;;;17.98;21.15;98677.75;5092928;28;20066;-64
2022/05/11 10:52:49;;;;;;;7.63;1.48;;;;;;;17.93;21.20;98675.34;5092903;28;20047;-64
2022/05/11 10:55:40;;;;;;;3.38;1.25;;;;;;;17.94;21.49;98663.69;5092854;28;20048;-64
2022/05/11 10:58:35;;;;;;;2.22;1.30;;;;;;;17.87;21.67;98676.94;5092784;28;20494;-65
2022/05/11 11:01:09;;;;;;;3.53;1.33;;;;;;;18.05;21.65;98667.31;5092893;28;20425;-64
2022/05/11 11:04:11;;;;;;;3.65;1.40;;;;;;;18.17;21.74;98663.25;5092809;28;20134;-63
2022/05/11 11:07:14;;;;;;;4.43;1.40;;;;;;;18.23;21.73;98656.00;5010170;28;20076;-64
2022/05/11 11:09:58;;;;;;;2.67;1.45;;;;;;;18.27;21.72;98653.19;5092654;28;20062;-65
2022/05/11 11:12:57;;;;;;;5.03;1.17;;;;;;;18.29;22.15;98647.97;5092293;28;20093;-65
2022/05/11 11:15:29;;;;;;;5.13;1.27;;;;;;;18.35;22.03;98644.31;5047931;28;20052;-65
2022/05/11 11:17:57;;;;;;;3.15;1.20;;;;;;;18.45;21.85;98637.91;5092515;28;20125;-65
2022/05/11 11:20:35;;;;;;;3.67;1.30;;;;;;;18.52;22.23;98635.06;5093274;28;20044;-64
2022/05/11 11:23:06;;;;;;;2.28;1.40;;;;;;;18.54;22.05;98640.28;5074597;28;20519;-63
2022/05/11 11:25:54;;;;;;;7.30;1.40;;;;;;;18.57;21.66;98631.84;5092591;28;20048;-64
2022/05/11 11:28:23;;;;;;;9.85;1.10;;;;;;;18.61;21.69;98635.44;5092067;28;20047;-64
2022/05/11 11:30:59;;;;;;;4.00;1.40;;;;;;;18.55;22.17;98631.44;5092431;28;20040;-64
2022/05/11 11:33:31;;;;;;;5.47;1.42;;;;;;;18.45;22.31;98635.09;5092548;28;20093;-64
2022/05/11 11:36:01;;;;;;;3.58;1.25;;;;;;;18.56;22.25;98630.22;5092577;28;20487;-65
2022/05/11 11:38:41;;;;;;;4.43;1.60;;;;;;;18.51;21.98;98622.19;5092269;28;20525;-65
2022/05/11 11:41:15;;;;;;;12.55;1.48;;;;;;;18.41;21.95;98614.56;5074034;28;20044;-64
2022/05/11 11:43:45;;;;;;;1.98;1.00;;;;;;;18.28;21.95;98619.00;5075355;28;20056;-65
2022/05/11 11:46:30;;;;;;;;;;;;;;;18.14;21.80;98611.41;5076307;28;20143;-65
2022/05/11 11:49:27;;;;;;;3.60;1.33;;;;;;;18.11;21.56;98611.38;5076810;28;19924;-66
2022/05/11 11:52:00;;;;;;;2.97;1.23;;;;;;;18.13;21.52;98606.97;5070312;28;20056;-64
2022/05/11 11:54:39;;;;;;;4.53;1.30;;;;;;;18.22;21.66;98609.38;5075324;28;20063;-65
2022/05/11 11:57:12;;;;;;;2.90;1.23;;;;;;;18.28;21.79;98616.19;5075812;28;20475;-64
2022/05/11 11:59:42;;;;;;;4.05;1.30;;;;;;;18.36;21.63;98609.34;5075794;28;20052;-65
2022/05/11 12:02:12;;;;;;;4.47;1.95;;;;;;;18.41;21.58;98608.16;5075812;28;20044;-65
2022/05/11 12:04:57;;;;;;;6.82;1.67;;;;;;;18.38;21.81;98598.47;5075822;28;20051;-65
2022/05/11 12:16:17;;;;;;;8.30;3.58;;;;;;;18.16;21.97;98594.09;5096481;28;20067;-64
2022/05/11 12:18:45;;;;;;;3.57;1.20;;;;;;;18.13;21.97;98592.09;5095845;28;20051;-65
2022/05/11 12:21:25;;;;;;;2.22;1.20;;;;;;;18.13;22.02;98584.47;5095659;28;20282;-65
2022/05/11 12:23:52;;;;;;;;;;;;;;;18.02;22.14;98589.31;5095980;28;20434;-66
2022/05/11 12:26:40;;;;;;;4.50;1.20;;;;;;;18.10;22.10;98588.09;5095648;28;20328;-65
2022/05/11 12:32:08;;;;;;;7.68;1.60;;;;;;;18.02;22.09;98577.22;5095326;28;20457;-65
2022/05/11 12:34:44;;;;;;;3.55;1.30;;;;;;;18.10;22.18;98567.56;5095537;28;20109;-65
2022/05/11 12:37:26;;;;;;;5.13;1.60;;;;;;;18.14;22.27;98571.97;5095391;28;20079;-66
2022/05/11 12:40:18;;;;;;;16.13;1.40;;;;;;;17.98;22.14;98568.00;5095156;28;20465;-66
2022/05/11 12:42:49;;;;;;;2.28;1.30;;;;;;;17.93;22.19;98566.41;5095732;28;20114;-64
2022/05/11 12:45:46;;;;;;;4.43;1.50;;;;;;;17.99;22.25;98563.97;5095211;28;20040;-64